Weather at Kamal Bazar Airport

Public forecast

Using degrees Celsius for public forecast. Weather courtesy of forecast.io.

Closest aviation weather report (METAR) to Kamal Bazar Airport

Closest report is Pantnagar Airport, 98.1 nm (181.7 km) W.

2024/05/20 06:00 (retrieved 20 minutes ago)

VIPT 200600Z 10009KT 5000 HZ NSC 36/22 Q1004

Closest aviation forecast (TAF) to Kamal Bazar Airport

Closest forecast is Pantnagar Airport, 98.1 nm (181.7 km) W.

2024/05/20 06:00 (retrieved 20 minutes ago)

TAF VIPT 200500Z 2006/2112 09008KT 5000 HZ FEW080 TEMPO 2008/2012 11010G20KT 2000 -TSRA FEW035 FEW035CB BKN090 BECMG 2012/2014 07005KT 3000 HZ SCT100 BECMG 2100/2102 09010KT 3000 HZ NSC BECMG 2104/2106 11008G18KT 5000 HZ FEW080